Time;durP1;ratioP1;P1;durP2;ratioP2;P2;SDS_P1;SDS_P2;PMS_P1;PMS_P2;Temp;Humidity;BMP_temperature;BMP_pressure;BME280_temperature;BME280_humidity;BME280_pressure;Samples;Min_cycle;Max_cycle;Signal;HPM_P1;HPM_P2
2021/05/15 00:00:28;;;;;;;8.98;4.50;;;15.70;79.70;;;;;;4977250;28;20106;-83
2021/05/15 00:02:54;;;;;;;7.25;4.60;;;15.60;80.00;;;;;;4976209;28;20023;-83
2021/05/15 00:05:20;;;;;;;6.55;4.70;;;15.50;80.00;;;;;;4976205;28;20029;-84
2021/05/15 00:07:46;;;;;;;6.45;4.70;;;15.50;80.30;;;;;;4975975;28;20022;-83
2021/05/15 00:10:12;;;;;;;6.57;4.55;;;15.40;80.40;;;;;;4976527;28;20117;-83
2021/05/15 00:12:37;;;;;;;7.20;4.60;;;15.40;80.50;;;;;;4987187;28;20110;-83
2021/05/15 00:15:06;;;;;;;8.23;5.38;;;15.40;80.80;;;;;;4983879;28;20397;-83
2021/05/15 00:17:32;;;;;;;7.35;5.35;;;15.30;81.00;;;;;;4976259;28;20023;-83
2021/05/15 00:19:58;;;;;;;8.70;5.20;;;15.30;81.10;;;;;;4975306;28;20023;-79
2021/05/15 00:22:24;;;;;;;7.78;5.43;;;15.20;81.40;;;;;;4974524;28;20488;-80
2021/05/15 00:24:49;;;;;;;8.30;5.80;;;15.10;81.60;;;;;;5005747;28;20058;-80
2021/05/15 00:27:15;;;;;;;8.23;5.38;;;15.10;81.90;;;;;;4973950;28;20023;-81
2021/05/15 00:29:41;;;;;;;6.20;5.30;;;15.10;82.20;;;;;;4974426;28;20085;-80
2021/05/15 00:32:07;;;;;;;7.05;5.43;;;15.00;82.30;;;;;;4974045;28;20533;-80
2021/05/15 00:34:32;;;;;;;8.52;5.55;;;15.00;82.60;;;;;;4974253;28;20031;-80
2021/05/15 00:36:58;;;;;;;6.03;5.43;;;14.90;82.80;;;;;;5005256;28;20484;-78
2021/05/15 00:39:24;;;;;;;9.88;5.55;;;14.90;83.00;;;;;;4973909;28;20034;-80
2021/05/15 00:41:50;;;;;;;9.18;5.88;;;14.90;83.30;;;;;;4974107;28;20074;-79
2021/05/15 00:46:50;;;;;;;8.85;6.03;;;14.80;83.50;;;;;;4979590;28;20019;-79
2021/05/15 00:49:16;;;;;;;8.07;5.88;;;14.70;83.70;;;;;;4982773;28;20066;-80
2021/05/15 00:51:42;;;;;;;11.02;5.47;;;14.70;83.90;;;;;;4976559;28;20049;-80
2021/05/15 00:54:12;;;;;;;8.70;6.22;;;14.70;84.10;;;;;;4975183;28;20359;-80
2021/05/15 00:56:39;;;;;;;9.05;6.20;;;14.70;84.40;;;;;;4973777;28;20026;-80
2021/05/15 00:59:06;;;;;;;8.23;6.00;;;14.60;84.50;;;;;;4973790;28;20478;-80
2021/05/15 01:01:31;;;;;;;9.23;6.32;;;14.60;84.60;;;;;;4973611;28;20035;-80
2021/05/15 01:03:57;;;;;;;7.85;5.88;;;14.60;84.70;;;;;;4973787;28;20482;-80
2021/05/15 01:06:24;;;;;;;9.60;6.40;;;14.50;84.90;;;;;;4973513;28;20022;-79
2021/05/15 01:08:50;;;;;;;6.90;6.20;;;14.50;84.90;;;;;;4973555;28;20030;-79
2021/05/15 01:11:18;;;;;;;10.90;6.57;;;14.50;85.00;;;;;;4973249;28;20043;-80
2021/05/15 01:13:50;;;;;;;8.70;6.45;;;14.40;85.10;;;;;;4974024;28;20026;-81
2021/05/15 01:16:16;;;;;;;;;;;14.40;85.40;;;;;;4974734;28;20450;-80
2021/05/15 01:18:42;;;;;;;10.23;6.53;;;14.40;84.90;;;;;;4974607;28;19943;-80
2021/05/15 01:21:10;;;;;;;8.35;6.38;;;14.30;85.30;;;;;;4974597;28;20037;-80
2021/05/15 01:23:36;;;;;;;9.20;6.43;;;14.30;85.50;;;;;;4983648;28;20019;-80
2021/05/15 01:26:17;;;;;;;11.55;6.80;;;14.20;85.80;;;;;;5017867;28;20026;-82
2021/05/15 01:28:44;;;;;;;11.65;6.82;;;14.20;86.70;;;;;;4976083;28;20398;-81
2021/05/15 01:31:11;;;;;;;9.50;6.95;;;14.20;86.30;;;;;;5010277;28;20026;-80
2021/05/15 01:33:37;;;;;;;8.38;6.63;;;14.20;86.60;;;;;;4977280;28;20033;-80
2021/05/15 01:36:04;;;;;;;8.60;6.93;;;14.10;86.60;;;;;;4977074;28;20462;-80
2021/05/15 01:38:29;;;;;;;9.60;7.30;;;14.10;86.80;;;;;;4977094;28;20106;-76
2021/05/15 01:41:04;;;;;;;11.40;7.55;;;14.10;87.00;;;;;;4977330;28;20114;-80
2021/05/15 01:43:29;;;;;;;10.48;6.93;;;14.00;87.30;;;;;;4977662;28;20051;-80
2021/05/15 01:45:55;;;;;;;12.80;7.88;;;14.00;87.40;;;;;;4977507;28;20062;-81
2021/05/15 01:48:21;;;;;;;9.98;7.55;;;14.00;87.50;;;;;;4977662;28;20034;-81
2021/05/15 01:50:57;;;;;;;11.48;7.95;;;14.00;87.70;;;;;;4977561;28;20030;-82
2021/05/15 01:53:27;;;;;;;16.80;8.00;;;14.00;88.00;;;;;;4977419;28;20058;-81
2021/05/15 01:55:54;;;;;;;12.30;8.45;;;13.90;88.00;;;;;;5008567;28;20025;-79
2021/05/15 01:58:20;;;;;;;14.38;8.45;;;13.90;88.30;;;;;;4984230;28;20027;-78
2021/05/15 02:00:46;;;;;;;15.90;8.27;;;13.80;88.50;;;;;;4987635;28;20102;-84
2021/05/15 02:03:12;;;;;;;11.38;8.25;;;13.90;88.70;;;;;;4978759;28;20027;-81
2021/05/15 02:05:38;;;;;;;10.80;7.38;;;13.80;88.80;;;;;;4977783;28;20023;-80
2021/05/15 02:08:04;;;;;;;13.90;8.93;;;13.80;89.00;;;;;;4977250;28;20105;-80
2021/05/15 02:10:30;;;;;;;11.45;8.20;;;13.80;89.20;;;;;;4978115;28;20035;-81
2021/05/15 02:12:56;;;;;;;14.85;9.52;;;13.80;89.50;;;;;;4977894;28;20022;-85
2021/05/15 02:15:22;;;;;;;15.55;8.60;;;13.80;89.60;;;;;;4977421;28;20101;-83
2021/05/15 02:17:48;;;;;;;13.30;8.65;;;13.70;89.80;;;;;;4977468;28;20030;-80
2021/05/15 02:20:14;;;;;;;16.05;9.05;;;13.80;89.90;;;;;;4976971;28;20027;-80
2021/05/15 02:22:40;;;;;;;16.60;8.65;;;13.80;90.00;;;;;;4977142;28;20482;-81
2021/05/15 02:25:07;;;;;;;15.25;8.43;;;13.80;90.10;;;;;;4976537;28;20041;-81
2021/05/15 02:27:33;;;;;;;11.20;8.32;;;13.80;90.30;;;;;;4977216;28;20035;-81
2021/05/15 02:29:59;;;;;;;11.68;8.07;;;14.00;90.80;;;;;;4977111;28;20102;-81
2021/05/15 02:32:25;;;;;;;12.63;7.10;;;14.30;91.40;;;;;;5009059;28;20381;-81
2021/05/15 02:34:50;;;;;;;12.95;7.20;;;14.80;91.40;;;;;;4980542;28;20046;-81
2021/05/15 02:37:16;;;;;;;10.23;6.70;;;15.40;91.10;;;;;;4982497;28;20026;-81
2021/05/15 02:39:42;;;;;;;7.97;6.00;;;16.00;90.40;;;;;;4978157;28;20029;-81
2021/05/15 02:42:07;;;;;;;9.88;6.00;;;16.70;89.10;;;;;;4978080;28;20106;-81
2021/05/15 02:44:33;;;;;;;14.48;6.60;;;17.40;87.00;;;;;;4976793;28;20473;-81
2021/05/15 02:46:59;;;;;;;8.20;5.80;;;18.10;84.30;;;;;;4976309;28;20042;-82
2021/05/15 02:49:25;;;;;;;10.02;5.82;;;18.80;81.50;;;;;;4976212;28;20030;-81
2021/05/15 02:51:50;;;;;;;8.07;5.82;;;19.30;78.50;;;;;;4976172;28;20030;-81
2021/05/15 02:54:16;;;;;;;7.25;5.55;;;19.80;76.40;;;;;;4976274;28;20030;-81
2021/05/15 02:56:42;;;;;;;9.93;5.80;;;20.50;74.60;;;;;;4976339;28;20029;-81
2021/05/15 02:59:08;;;;;;;6.82;5.47;;;21.10;72.10;;;;;;4976664;28;20039;-82
2021/05/15 03:01:34;;;;;;;7.93;5.03;;;21.50;70.00;;;;;;4975852;28;20085;-81
2021/05/15 03:04:00;;;;;;;10.02;5.28;;;22.10;68.20;;;;;;4975914;28;20097;-82
2021/05/15 03:06:26;;;;;;;10.48;5.60;;;22.60;66.70;;;;;;4977343;28;20429;-81
2021/05/15 03:08:51;;;;;;;8.00;5.18;;;23.10;65.10;;;;;;4977121;28;20087;-81
2021/05/15 03:11:17;;;;;;;7.80;4.15;;;23.70;63.40;;;;;;4977568;28;20074;-82
2021/05/15 03:13:43;;;;;;;10.68;4.78;;;24.30;61.70;;;;;;4984682;28;20130;-81
2021/05/15 03:16:08;;;;;;;7.38;4.50;;;24.70;60.00;;;;;;4992036;28;20034;-82
2021/05/15 03:18:34;;;;;;;6.72;5.05;;;25.20;58.60;;;;;;4978377;28;20057;-82
2021/05/15 03:21:00;;;;;;;8.43;5.15;;;25.80;57.60;;;;;;4977952;28;20459;-83
2021/05/15 03:23:25;;;;;;;8.02;4.80;;;26.40;56.40;;;;;;4977126;28;20069;-83
2021/05/15 03:25:51;;;;;;;10.57;4.72;;;26.80;54.90;;;;;;4976776;28;20062;-84
2021/05/15 03:28:17;;;;;;;8.10;4.40;;;27.20;53.80;;;;;;4976231;28;20047;-83
2021/05/15 03:30:43;;;;;;;9.27;4.93;;;27.80;52.80;;;;;;4976530;28;20038;-82
2021/05/15 03:33:08;;;;;;;6.85;4.70;;;28.50;51.70;;;;;;4976477;28;20030;-83
2021/05/15 03:35:34;;;;;;;6.55;4.72;;;28.90;50.50;;;;;;4976070;28;20027;-83
2021/05/15 03:38:00;;;;;;;6.32;4.60;;;29.40;49.60;;;;;;4976035;28;20440;-82
2021/05/15 03:40:26;;;;;;;6.00;4.53;;;29.90;48.70;;;;;;4976112;28;20489;-83
2021/05/15 03:42:56;;;;;;;9.25;5.40;;;30.40;47.90;;;;;;4975818;28;20029;-82
2021/05/15 03:45:23;;;;;;;5.55;4.60;;;31.00;47.00;;;;;;4976463;28;20479;-82
2021/05/15 03:47:48;;;;;;;6.50;4.60;;;31.50;46.30;;;;;;4977210;28;20549;-82
2021/05/15 03:50:15;;;;;;;8.07;4.68;;;31.90;45.40;;;;;;4984360;28;20058;-82
2021/05/15 03:52:41;;;;;;;10.05;4.70;;;32.40;44.40;;;;;;4982655;28;20031;-82
2021/05/15 03:55:07;;;;;;;6.65;4.85;;;32.60;43.80;;;;;;4975941;28;20027;-83
2021/05/15 03:57:33;;;;;;;8.90;4.80;;;32.90;43.40;;;;;;4975615;28;20157;-83
2021/05/15 03:59:59;;;;;;;6.43;4.70;;;33.30;43.10;;;;;;4975459;28;20105;-83
2021/05/15 04:02:25;;;;;;;8.27;4.72;;;33.70;42.60;;;;;;4975766;28;20023;-83
2021/05/15 04:04:52;;;;;;;11.25;5.10;;;34.20;42.00;;;;;;5006419;28;20552;-83
2021/05/15 04:07:18;;;;;;;8.05;4.80;;;34.50;41.30;;;;;;4975199;28;20061;-83
2021/05/15 04:09:43;;;;;;;6.53;4.75;;;34.60;41.00;;;;;;4975054;28;20031;-83
2021/05/15 04:12:14;;;;;;;7.13;4.32;;;34.90;40.70;;;;;;4975005;28;20042;-82
2021/05/15 04:14:46;;;;;;;;;;;35.10;40.10;;;;;;4975775;28;20057;-83
2021/05/15 04:19:40;;;;;;;8.27;4.70;;;35.70;40.10;;;;;;4975378;28;20034;-83
2021/05/15 04:22:06;;;;;;;5.68;4.57;;;36.00;39.20;;;;;;4973488;28;20034;-84
2021/05/15 04:24:32;;;;;;;8.07;5.43;;;36.20;38.80;;;;;;4977570;28;20033;-82
2021/05/15 04:27:01;;;;;;;9.60;4.47;;;36.50;38.40;;;;;;4980619;28;20050;-82
2021/05/15 04:29:27;;;;;;;11.93;5.35;;;36.60;37.80;;;;;;4975591;28;20110;-81
2021/05/15 04:31:56;;;;;;;10.13;4.93;;;36.80;37.70;;;;;;4975534;28;20023;-81
2021/05/15 04:34:23;;;;;;;5.72;4.88;;;37.00;37.50;;;;;;4974767;28;20058;-82
2021/05/15 04:36:49;;;;;;;8.23;4.88;;;37.20;37.40;;;;;;4974478;28;20101;-81
2021/05/15 04:39:16;;;;;;;12.73;4.78;;;37.40;37.00;;;;;;4973991;28;20026;-82
2021/05/15 04:41:41;;;;;;;10.13;5.72;;;37.70;36.70;;;;;;4973580;28;20386;-81
2021/05/15 04:44:07;;;;;;;9.85;5.68;;;37.90;36.40;;;;;;4973308;28;20033;-80
2021/05/15 04:46:33;;;;;;;9.60;5.25;;;38.00;36.20;;;;;;4973508;28;20462;-80
2021/05/15 04:48:59;;;;;;;10.30;5.13;;;38.20;36.10;;;;;;4973705;28;20025;-83
2021/05/15 04:51:24;;;;;;;11.77;5.45;;;38.40;35.80;;;;;;4974701;28;20114;-82
2021/05/15 04:53:50;;;;;;;7.53;4.90;;;38.60;35.60;;;;;;4975234;28;20038;-83
2021/05/15 04:56:16;;;;;;;8.05;5.13;;;38.90;35.60;;;;;;4975171;28;20073;-85
2021/05/15 04:58:45;;;;;;;11.38;5.93;;;39.20;35.10;;;;;;5006929;28;20085;-84
2021/05/15 05:01:10;;;;;;;10.82;5.07;;;39.30;34.80;;;;;;4974396;28;20826;-82
2021/05/15 05:03:36;;;;;;;13.88;5.30;;;39.50;34.70;;;;;;4975907;28;20026;-83
2021/05/15 05:06:02;;;;;;;9.43;4.78;;;39.70;34.60;;;;;;5014606;28;20553;-84
2021/05/15 05:08:28;;;;;;;11.23;5.18;;;39.80;34.20;;;;;;4977850;28;20078;-83
2021/05/15 05:10:54;;;;;;;7.85;4.97;;;40.00;34.10;;;;;;4979562;28;20117;-83
2021/05/15 05:13:20;;;;;;;10.55;5.15;;;40.20;33.80;;;;;;4977264;28;20152;-83
2021/05/15 05:15:47;;;;;;;5.85;4.28;;;40.20;33.60;;;;;;4974877;28;20418;-84
2021/05/15 05:18:13;;;;;;;6.82;4.40;;;40.40;33.60;;;;;;4974304;28;20459;-85
2021/05/15 05:20:39;;;;;;;10.50;4.50;;;40.60;33.40;;;;;;4974508;28;20085;-84
2021/05/15 05:23:06;;;;;;;6.85;3.67;;;40.70;33.20;;;;;;4974537;28;20019;-85
2021/05/15 05:25:32;;;;;;;8.13;3.80;;;40.90;33.00;;;;;;4973809;28;20027;-83
2021/05/15 05:27:58;;;;;;;7.00;4.25;;;41.00;32.60;;;;;;4973807;28;20053;-82
2021/05/15 05:30:24;;;;;;;5.75;3.55;;;41.00;32.70;;;;;;4974504;28;20106;-86
2021/05/15 05:32:51;;;;;;;10.75;3.40;;;41.20;32.40;;;;;;4973911;28;20050;-84
2021/05/15 05:35:18;;;;;;;8.95;3.50;;;41.30;32.20;;;;;;4973759;28;20025;-86
2021/05/15 05:37:44;;;;;;;8.65;3.00;;;41.60;32.20;;;;;;4975314;28;20461;-89
2021/05/15 05:40:11;;;;;;;6.35;3.15;;;41.70;31.90;;;;;;4975731;28;20089;-88
2021/05/15 05:42:38;;;;;;;5.18;3.10;;;41.90;31.80;;;;;;4974673;28;20019;-90
2021/05/15 05:45:06;;;;;;;4.45;2.70;;;42.10;31.40;;;;;;5016201;28;20027;-87
2021/05/15 05:47:32;;;;;;;3.45;2.92;;;42.30;31.50;;;;;;4980586;28;20025;-86
2021/05/15 05:49:58;;;;;;;3.42;2.42;;;42.20;31.10;;;;;;5005383;28;20106;-88
2021/05/15 05:52:23;;;;;;;3.88;2.70;;;42.30;30.80;;;;;;5004742;28;20493;-87
2021/05/15 05:54:49;;;;;;;3.40;2.30;;;42.20;30.70;;;;;;4973461;28;20073;-86
2021/05/15 05:57:15;;;;;;;9.55;2.80;;;42.10;30.60;;;;;;4973075;28;20029;-87
2021/05/15 05:59:40;;;;;;;5.85;2.60;;;42.10;30.70;;;;;;4973685;28;20106;-89
2021/05/15 06:02:07;;;;;;;5.20;2.33;;;42.00;30.60;;;;;;4973665;28;20050;-91
2021/05/15 06:04:33;;;;;;;6.57;2.60;;;41.90;30.70;;;;;;5006878;28;20034;-90
2021/05/15 06:06:59;;;;;;;5.75;2.33;;;41.80;30.60;;;;;;4974098;28;20786;-88
2021/05/15 06:09:25;;;;;;;6.20;3.03;;;41.70;30.80;;;;;;5006434;28;20026;-89
2021/05/15 06:11:51;;;;;;;3.45;2.75;;;41.70;30.90;;;;;;5005549;28;20031;-87
2021/05/15 06:14:16;;;;;;;5.10;2.45;;;41.70;30.90;;;;;;4973458;28;20149;-85
2021/05/15 06:16:42;;;;;;;8.45;2.67;;;41.70;30.70;;;;;;4976221;28;20454;-86
2021/05/15 06:19:08;;;;;;;4.72;2.20;;;41.70;30.80;;;;;;5007676;28;20026;-87
2021/05/15 06:21:33;;;;;;;7.78;4.05;;;41.70;30.70;;;;;;5007805;28;20070;-87
2021/05/15 06:23:59;;;;;;;3.65;2.28;;;41.80;30.70;;;;;;4977708;28;20034;-86
2021/05/15 06:26:25;;;;;;;2.55;2.22;;;41.70;30.50;;;;;;4989662;28;20050;-87
2021/05/15 06:28:51;;;;;;;5.78;2.90;;;41.70;30.40;;;;;;4978476;28;20058;-86
2021/05/15 06:31:17;;;;;;;5.47;3.03;;;41.80;30.40;;;;;;5007563;28;20027;-86
2021/05/15 06:33:43;;;;;;;5.50;2.22;;;41.80;30.40;;;;;;4976854;28;20046;-87
2021/05/15 06:36:09;;;;;;;6.45;3.83;;;41.90;30.50;;;;;;4975896;28;20096;-85
2021/05/15 06:38:34;;;;;;;5.40;2.35;;;41.90;30.50;;;;;;4975575;28;20038;-86
2021/05/15 06:41:00;;;;;;;3.70;3.33;;;41.80;30.50;;;;;;4975651;28;20030;-86
2021/05/15 06:43:26;;;;;;;3.85;2.85;;;41.80;30.30;;;;;;4975515;28;20034;-86
2021/05/15 06:45:51;;;;;;;6.10;2.42;;;41.70;30.40;;;;;;4977235;28;20513;-86
2021/05/15 06:48:17;;;;;;;7.78;2.17;;;41.80;31.30;;;;;;4974438;28;20047;-84
2021/05/15 06:50:43;;;;;;;2.03;1.83;;;41.70;30.20;;;;;;4973706;28;20104;-86
2021/05/15 06:53:08;;;;;;;5.30;2.13;;;41.50;30.10;;;;;;4977703;28;20078;-86
2021/05/15 06:55:34;;;;;;;2.13;1.90;;;41.30;30.10;;;;;;4975686;28;20663;-86
2021/05/15 06:58:05;;;;;;;8.82;2.50;;;40.90;30.00;;;;;;4976449;28;20027;-83
2021/05/15 07:00:31;;;;;;;3.75;2.10;;;40.70;30.40;;;;;;5015617;28;20026;-85
2021/05/15 07:02:56;;;;;;;2.10;1.90;;;40.60;30.70;;;;;;4989263;28;20022;-86
2021/05/15 07:05:22;;;;;;;4.35;2.10;;;40.50;30.70;;;;;;4976949;28;20033;-85
2021/05/15 07:07:48;;;;;;;4.10;2.05;;;40.00;30.70;;;;;;4976442;28;20027;-88
2021/05/15 07:10:14;;;;;;;3.05;1.98;;;39.70;30.90;;;;;;4978696;28;20058;-89
2021/05/15 07:12:39;;;;;;;4.60;2.08;;;39.60;31.20;;;;;;4975293;28;20042;-86
2021/05/15 07:15:07;;;;;;;2.35;1.92;;;39.60;31.20;;;;;;4975220;28;20019;-86
2021/05/15 07:17:33;;;;;;;8.02;2.13;;;39.60;31.30;;;;;;4979431;28;20023;-86
2021/05/15 07:19:59;;;;;;;2.83;1.90;;;39.60;31.50;;;;;;4982429;28;20033;-86
2021/05/15 07:22:25;;;;;;;5.05;1.90;;;39.50;31.30;;;;;;4980646;28;20030;-85
2021/05/15 07:24:52;;;;;;;7.43;1.95;;;39.30;31.30;;;;;;4975929;28;20105;-87
2021/05/15 07:27:19;;;;;;;2.85;2.00;;;39.20;31.60;;;;;;4974742;28;20049;-87
2021/05/15 07:29:45;;;;;;;1.95;1.45;;;39.10;31.80;;;;;;4975187;28;20125;-85
2021/05/15 07:32:11;;;;;;;5.88;2.30;;;38.90;31.60;;;;;;4975618;28;20400;-84
2021/05/15 07:34:36;;;;;;;1.98;1.50;;;38.80;31.80;;;;;;4974937;28;20102;-84
2021/05/15 07:37:02;;;;;;;7.63;2.17;;;38.60;31.90;;;;;;5016131;28;20022;-85
2021/05/15 07:39:28;;;;;;;3.60;1.80;;;38.40;32.20;;;;;;4984537;28;20034;-86
2021/05/15 07:41:54;;;;;;;3.08;1.55;;;38.10;32.20;;;;;;4975837;28;20057;-85
2021/05/15 07:44:22;;;;;;;3.40;1.90;;;38.00;32.50;;;;;;4975172;28;20026;-86
2021/05/15 07:46:48;;;;;;;2.42;1.70;;;37.80;32.70;;;;;;4974787;28;20026;-85
2021/05/15 07:49:14;;;;;;;5.43;1.63;;;37.60;32.70;;;;;;4975859;28;20373;-85
2021/05/15 07:51:40;;;;;;;7.43;2.47;;;37.40;32.90;;;;;;4975491;28;20105;-84
2021/05/15 07:54:06;;;;;;;1.85;1.50;;;37.10;33.10;;;;;;4974412;28;20099;-84
2021/05/15 07:56:32;;;;;;;5.43;3.28;;;36.80;33.40;;;;;;4975067;28;20039;-86
2021/05/15 07:58:58;;;;;;;2.88;1.67;;;36.60;33.60;;;;;;4973969;28;20032;-85
2021/05/15 08:01:24;;;;;;;3.67;2.70;;;36.30;33.80;;;;;;4973590;28;20027;-85
2021/05/15 08:03:49;;;;;;;2.28;1.73;;;35.90;34.30;;;;;;4972830;28;20134;-86
2021/05/15 08:06:15;;;;;;;2.30;1.85;;;35.50;34.70;;;;;;4973613;28;20484;-85
2021/05/15 08:08:41;;;;;;;7.00;2.17;;;35.20;34.90;;;;;;5004765;28;20046;-85
2021/05/15 08:11:07;;;;;;;4.95;2.20;;;34.90;34.90;;;;;;4975385;28;20109;-85
2021/05/15 08:13:33;;;;;;;3.50;1.83;;;34.50;35.20;;;;;;4981747;28;20038;-84
2021/05/15 08:15:59;;;;;;;5.45;1.50;;;34.20;35.70;;;;;;4980581;28;20027;-86
2021/05/15 08:18:25;;;;;;;2.42;1.80;;;34.00;35.90;;;;;;5006102;28;20022;-85
2021/05/15 08:20:50;;;;;;;2.58;1.80;;;33.90;35.90;;;;;;4974367;28;20101;-86
2021/05/15 08:23:16;;;;;;;3.70;2.25;;;33.70;35.90;;;;;;5005466;28;20470;-85
2021/05/15 08:25:42;;;;;;;2.13;1.73;;;33.60;36.00;;;;;;4974354;28;20023;-84
2021/05/15 08:28:12;;;;;;;8.75;1.83;;;33.40;36.10;;;;;;4975698;28;20058;-84
2021/05/15 08:30:41;;;;;;;4.70;1.80;;;33.30;36.30;;;;;;4973836;28;20082;-86
2021/05/15 08:33:08;;;;;;;2.15;1.42;;;33.20;36.40;;;;;;5003874;28;20027;-86
2021/05/15 08:35:34;;;;;;;7.43;1.88;;;33.20;36.50;;;;;;4972520;28;20429;-86
2021/05/15 08:38:03;;;;;;;6.35;2.20;;;33.10;36.50;;;;;;4973917;28;20027;-85
2021/05/15 08:40:29;;;;;;;7.47;2.25;;;33.00;36.40;;;;;;4973189;28;20034;-85
2021/05/15 08:42:56;;;;;;;5.22;1.70;;;33.00;36.50;;;;;;4973035;28;20026;-85
2021/05/15 08:45:23;;;;;;;3.88;1.60;;;33.00;36.20;;;;;;5003553;28;20038;-85
2021/05/15 08:47:51;;;;;;;2.45;1.55;;;33.00;36.50;;;;;;4974779;28;20034;-84
2021/05/15 08:50:21;;;;;;;6.03;1.50;;;32.90;36.20;;;;;;4986941;28;20034;-83
2021/05/15 08:52:51;;;;;;;6.90;1.70;;;32.80;36.60;;;;;;4973540;28;20015;-85
2021/05/15 08:55:31;;;;;;;4.55;1.50;;;32.70;36.00;;;;;;4973753;28;20049;-85
2021/05/15 08:57:58;;;;;;;4.07;1.27;;;32.40;36.00;;;;;;4971234;28;20019;-85
2021/05/15 09:00:33;;;;;;;5.50;1.50;;;32.20;36.10;;;;;;5003732;28;20022;-85
2021/05/15 09:03:03;;;;;;;5.45;1.58;;;32.00;36.20;;;;;;5003253;28;20023;-85
2021/05/15 09:05:31;;;;;;;4.10;1.73;;;31.90;36.40;;;;;;4971031;28;20014;-87
2021/05/15 09:08:00;;;;;;;4.28;3.00;;;31.80;36.90;;;;;;4974327;28;20094;-86
2021/05/15 09:10:29;;;;;;;4.05;1.73;;;31.70;36.80;;;;;;4972786;28;20054;-85
2021/05/15 09:13:08;;;;;;;6.00;1.65;;;31.40;36.90;;;;;;4972967;28;20039;-83
2021/05/15 09:15:49;;;;;;;6.38;2.78;;;31.20;37.00;;;;;;4972911;28;20030;-84
2021/05/15 09:18:16;;;;;;;6.03;2.00;;;30.90;37.30;;;;;;4971853;28;20473;-85
2021/05/15 09:20:44;;;;;;;3.20;1.30;;;30.90;37.70;;;;;;4971639;28;20513;-84
2021/05/15 09:23:12;;;;;;;4.22;1.83;;;30.90;37.50;;;;;;4972062;28;20057;-85
2021/05/15 09:25:38;;;;;;;3.03;1.30;;;30.90;37.80;;;;;;4978183;28;20035;-83
2021/05/15 09:28:04;;;;;;;1.40;1.25;;;30.70;37.60;;;;;;5011179;28;20059;-85
2021/05/15 09:30:31;;;;;;;4.70;2.45;;;30.40;37.70;;;;;;4974635;28;20093;-87
2021/05/15 09:32:57;;;;;;;2.45;2.03;;;30.30;38.20;;;;;;4972909;28;20035;-83
2021/05/15 09:35:27;;;;;;;2.95;1.58;;;30.30;38.40;;;;;;4972255;28;20038;-84
2021/05/15 09:37:53;;;;;;;6.78;2.15;;;30.30;38.70;;;;;;4972207;28;20037;-83
2021/05/15 09:40:28;;;;;;;3.75;1.70;;;30.40;39.60;;;;;;4972934;28;20031;-83
2021/05/15 09:43:02;;;;;;;1.75;1.65;;;30.40;39.30;;;;;;4972073;28;20100;-83
2021/05/15 09:45:35;;;;;;;3.78;1.50;;;30.40;38.90;;;;;;4972225;28;20031;-84
2021/05/15 09:48:05;;;;;;;2.35;1.45;;;30.40;38.60;;;;;;4972359;28;20424;-85
2021/05/15 09:50:33;;;;;;;2.65;1.40;;;30.30;38.70;;;;;;4974007;28;20035;-85
2021/05/15 09:53:22;;;;;;;1.48;1.38;;;30.30;39.30;;;;;;4976038;28;20073;-83
2021/05/15 09:55:54;;;;;;;3.17;1.70;;;30.20;39.10;;;;;;4975767;28;20581;-84
2021/05/15 09:58:20;;;;;;;8.07;1.90;;;30.20;39.10;;;;;;4975974;28;20034;-83
2021/05/15 10:00:51;;;;;;;3.60;1.77;;;30.10;39.30;;;;;;4979092;28;20034;-84
2021/05/15 10:03:21;;;;;;;2.03;1.23;;;30.10;39.30;;;;;;4985988;28;20030;-83
2021/05/15 10:06:04;;;;;;;5.00;1.40;;;30.00;39.10;;;;;;4977757;28;20105;-83
2021/05/15 10:08:34;;;;;;;3.15;1.48;;;30.00;39.20;;;;;;4981998;28;20050;-85
2021/05/15 10:11:08;;;;;;;7.78;1.40;;;30.10;39.50;;;;;;5009769;28;20134;-84
2021/05/15 10:13:35;;;;;;;5.15;1.60;;;30.00;39.30;;;;;;5007263;28;20444;-83
2021/05/15 10:16:01;;;;;;;3.70;1.90;;;29.90;39.40;;;;;;5007008;28;20476;-84
2021/05/15 10:18:29;;;;;;;2.13;1.27;;;29.90;39.60;;;;;;4975724;28;20027;-84
2021/05/15 10:20:55;;;;;;;4.72;1.73;;;29.80;39.30;;;;;;4976232;28;20031;-84
2021/05/15 10:23:30;;;;;;;1.85;0.95;;;29.70;39.30;;;;;;4976345;28;20114;-83
2021/05/15 10:26:24;;;;;;;3.90;1.30;;;29.60;39.60;;;;;;5007229;28;20541;-84
2021/05/15 10:29:02;;;;;;;3.72;1.33;;;29.50;39.70;;;;;;4971243;28;20537;-85
2021/05/15 10:31:46;;;;;;;2.65;1.20;;;29.40;40.20;;;;;;4975345;28;20031;-87
2021/05/15 10:34:12;;;;;;;3.67;1.55;;;29.30;39.30;;;;;;4977020;28;20092;-87
2021/05/15 10:36:56;;;;;;;1.88;1.13;;;29.30;39.00;;;;;;4980726;28;20023;-87
2021/05/15 10:39:33;;;;;;;1.30;1.20;;;29.20;38.50;;;;;;4993236;28;20026;-87
2021/05/15 10:42:00;;;;;;;4.55;1.27;;;29.10;38.60;;;;;;4979990;28;20023;-87
2021/05/15 10:44:37;;;;;;;2.00;1.10;;;29.00;38.90;;;;;;4977949;28;20030;-87
2021/05/15 10:47:03;;;;;;;2.53;1.70;;;29.00;39.00;;;;;;4975878;28;20078;-87
2021/05/15 10:49:29;;;;;;;2.50;1.30;;;29.00;39.30;;;;;;4975328;28;20028;-90
2021/05/15 10:52:08;;;;;;;2.75;1.40;;;29.00;39.20;;;;;;5009499;28;20030;-93
2021/05/15 10:54:38;;;;;;;6.70;1.30;;;29.00;38.80;;;;;;4978969;28;20018;-92
2021/05/15 10:57:09;;;;;;;2.70;1.40;;;29.00;38.90;;;;;;5008340;28;20031;-86
2021/05/15 10:59:37;;;;;;;1.25;1.10;;;29.00;38.90;;;;;;5006802;28;20026;-86
2021/05/15 11:02:13;;;;;;;2.15;1.42;;;29.10;38.80;;;;;;4979367;28;20041;-89
2021/05/15 11:04:53;;;;;;;2.90;1.27;;;29.10;38.90;;;;;;4977315;28;20027;-88
2021/05/15 11:07:23;;;;;;;6.20;1.70;;;29.20;39.30;;;;;;5007424;28;20023;-86
2021/05/15 11:09:53;;;;;;;1.30;1.20;;;29.30;39.20;;;;;;5009964;28;20031;-86
2021/05/15 11:12:20;;;;;;;1.73;1.40;;;29.30;38.70;;;;;;4977901;28;20058;-85
2021/05/15 11:14:52;;;;;;;1.95;1.02;;;29.10;38.30;;;;;;5026447;28;20065;-87
2021/05/15 11:17:21;;;;;;;1.65;1.10;;;29.00;38.10;;;;;;4982226;28;20031;-82
2021/05/15 11:19:49;;;;;;;2.42;1.30;;;28.90;37.90;;;;;;4976111;28;20090;-83
2021/05/15 11:22:16;;;;;;;3.55;1.40;;;28.80;38.00;;;;;;4976714;28;20442;-85
2021/05/15 11:24:54;;;;;;;1.25;0.88;;;28.90;38.40;;;;;;4976090;28;20080;-86
2021/05/15 11:27:21;;;;;;;2.90;2.33;;;28.90;38.20;;;;;;4974891;28;20026;-84
2021/05/15 11:29:49;;;;;;;1.58;1.17;;;28.80;37.70;;;;;;4974045;28;20500;-85
2021/05/15 11:32:17;;;;;;;2.30;1.30;;;28.70;37.70;;;;;;5006362;28;20035;-86
2021/05/15 11:34:43;;;;;;;3.00;1.45;;;28.60;37.70;;;;;;4973589;28;20019;-78
2021/05/15 11:37:12;;;;;;;5.20;1.52;;;28.60;38.00;;;;;;4974072;28;20163;-76
2021/05/15 11:39:37;;;;;;;0.82;0.82;;;28.60;38.50;;;;;;4973235;28;20109;-77
2021/05/15 11:42:07;;;;;;;1.38;1.27;;;28.60;38.30;;;;;;4972999;28;20062;-79
2021/05/15 11:44:36;;;;;;;2.35;1.15;;;28.50;37.90;;;;;;4973126;28;20125;-77
2021/05/15 11:47:02;;;;;;;2.05;1.23;;;28.40;38.00;;;;;;4973449;28;20031;-76
2021/05/15 11:49:28;;;;;;;1.30;1.02;;;28.30;38.60;;;;;;4973596;28;20031;-79
2021/05/15 11:52:02;;;;;;;1.92;1.05;;;28.20;38.00;;;;;;4973788;28;20033;-81
2021/05/15 11:54:28;;;;;;;4.43;1.15;;;28.20;38.10;;;;;;5004833;28;20506;-79
2021/05/15 11:56:56;;;;;;;3.25;1.15;;;28.20;38.30;;;;;;4974421;28;20027;-80
2021/05/15 11:59:23;;;;;;;1.17;1.00;;;28.20;38.20;;;;;;4973337;28;20029;-82
2021/05/15 12:01:49;;;;;;;3.28;1.00;;;28.20;38.20;;;;;;4973771;28;20054;-81
2021/05/15 12:04:25;;;;;;;1.70;1.10;;;28.10;38.00;;;;;;4973590;28;20054;-80
2021/05/15 12:07:05;;;;;;;2.30;1.15;;;28.10;38.40;;;;;;4973204;28;20033;-80
2021/05/15 12:09:32;;;;;;;6.25;1.73;;;28.00;38.40;;;;;;4973218;28;20041;-80
2021/05/15 12:12:03;;;;;;;4.15;2.20;;;27.90;38.50;;;;;;4972982;28;20254;-81
2021/05/15 12:14:30;;;;;;;3.70;1.60;;;27.90;38.90;;;;;;4972855;28;20046;-81
2021/05/15 12:17:10;;;;;;;3.72;1.20;;;27.80;38.90;;;;;;5004145;28;20886;-83
2021/05/15 12:19:35;;;;;;;5.97;1.40;;;27.70;38.90;;;;;;4972779;28;20065;-81
2021/05/15 12:22:01;;;;;;;1.95;1.33;;;27.60;39.00;;;;;;4972965;28;20067;-80
2021/05/15 12:24:34;;;;;;;2.38;1.00;;;27.60;39.00;;;;;;4973347;28;20046;-81
2021/05/15 12:27:20;;;;;;;2.58;1.10;;;27.60;39.00;;;;;;4976428;28;20023;-81
2021/05/15 12:29:58;;;;;;;3.38;0.75;;;27.60;39.40;;;;;;4975176;28;20066;-82
2021/05/15 12:32:28;;;;;;;4.25;1.50;;;27.70;39.20;;;;;;4974033;28;20485;-80
2021/05/15 12:35:26;;;;;;;2.13;1.30;;;27.70;39.40;;;;;;4972970;28;20469;-81
2021/05/15 12:37:56;;;;;;;2.92;1.17;;;27.80;39.30;;;;;;4940892;28;20093;-82
2021/05/15 12:40:25;;;;;;;1.17;0.98;;;27.80;39.10;;;;;;4972769;28;20026;-82
2021/05/15 12:42:51;;;;;;;1.85;0.77;;;27.80;39.10;;;;;;4972637;28;20201;-82
2021/05/15 12:45:17;;;;;;;1.00;1.00;;;27.70;38.90;;;;;;4973037;28;20189;-80
2021/05/15 12:47:47;;;;;;;3.35;1.40;;;27.50;38.90;;;;;;4972862;28;20097;-81
2021/05/15 12:50:16;;;;;;;3.28;1.00;;;27.50;39.20;;;;;;5003737;28;20027;-82
2021/05/15 12:52:42;;;;;;;2.25;1.70;;;27.40;39.20;;;;;;4972580;28;20035;-80